Time;durP1;ratioP1;P1;durP2;ratioP2;P2;SDS_P1;SDS_P2;PMS_P1;PMS_P2;Temp;Humidity;BMP_temperature;BMP_pressure;BME280_temperature;BME280_humidity;BME280_pressure;Samples;Min_cycle;Max_cycle;Signal;HPM_P1;HPM_P2
2023/06/27 00:00:53;;;;;;;22.58;3.15;;;15.60;99.90;;;14.63;96.39;100964.78;4937439;28;20031;-74
2023/06/27 00:03:18;;;;;;;22.40;3.30;;;15.60;99.90;;;14.59;96.96;100960.59;4942640;28;20040;-74
2023/06/27 00:05:44;;;;;;;14.18;2.78;;;15.50;99.90;;;14.49;97.42;100954.94;4943686;28;20220;-75
2023/06/27 00:08:10;;;;;;;;;;;15.50;99.90;;;14.37;97.88;100961.84;4936657;28;20106;-74
2023/06/27 00:10:36;;;;;;;28.38;3.08;;;15.40;99.90;;;14.28;98.44;100965.03;4934604;28;19914;-75
2023/06/27 00:13:02;;;;;;;14.00;3.13;;;15.30;99.90;;;14.25;98.89;100958.09;4944040;28;20031;-74
2023/06/27 00:15:34;;;;;;;12.80;2.45;;;15.30;99.90;;;14.24;99.32;100966.16;4926670;28;20636;-74
2023/06/27 00:17:59;;;;;;;24.55;2.75;;;15.30;99.90;;;14.21;99.23;100959.25;4932360;28;20125;-74
2023/06/27 00:20:26;;;;;;;13.15;2.88;;;15.30;99.90;;;14.23;99.24;100965.28;4940740;28;20484;-74
2023/06/27 00:22:52;;;;;;;16.90;2.97;;;15.30;99.90;;;14.24;99.07;100969.63;4919082;28;20439;-74
2023/06/27 00:25:19;;;;;;;18.73;2.55;;;15.20;99.90;;;14.20;99.03;100964.63;4928862;28;20460;-74
2023/06/27 00:27:45;;;;;;;22.48;3.30;;;15.20;99.90;;;14.16;98.91;100958.63;4921528;28;20585;-74
2023/06/27 00:30:11;;;;;;;15.85;2.47;;;15.20;99.90;;;14.13;99.16;100964.13;4928102;28;20066;-74
2023/06/27 00:32:37;;;;;;;13.52;2.67;;;15.10;99.90;;;14.12;99.06;100968.56;4945776;28;20069;-74
2023/06/27 00:35:04;;;;;;;13.93;2.60;;;15.10;99.90;;;14.08;99.37;100969.69;4937262;28;20055;-75
2023/06/27 00:37:30;;;;;;;23.70;3.15;;;15.10;99.90;;;14.05;99.54;100969.84;4945289;28;20037;-73
2023/06/27 00:39:55;;;;;;;17.65;3.03;;;15.00;99.90;;;13.98;99.74;100968.50;4933636;28;20043;-74
2023/06/27 00:42:21;;;;;;;16.75;2.53;;;15.00;99.90;;;13.95;99.50;100971.28;4934274;28;20111;-74
2023/06/27 00:44:47;;;;;;;;;;;15.00;99.90;;;13.84;100.00;100961.31;4945875;28;20035;-74
2023/06/27 00:47:13;;;;;;;26.05;3.00;;;14.90;99.90;;;13.82;100.00;100957.94;4931908;28;19928;-74
2023/06/27 00:49:38;;;;;;;;;;;14.90;99.90;;;13.80;100.00;100958.94;4936741;28;20030;-74
2023/06/27 00:52:05;;;;;;;21.00;3.17;;;14.80;99.90;;;13.77;100.00;100967.06;4924359;28;19918;-75
2023/06/27 00:54:32;;;;;;;16.08;2.63;;;14.80;99.90;;;13.78;100.00;100960.81;4924347;28;20528;-73
2023/06/27 00:56:58;;;;;;;16.40;3.15;;;14.80;99.90;;;13.77;100.00;100959.97;4939290;28;20036;-74
2023/06/27 00:59:25;;;;;;;22.65;3.30;;;14.80;99.90;;;13.75;100.00;100949.47;4940390;28;20643;-74
2023/06/27 01:01:51;;;;;;;21.25;3.50;;;14.80;99.90;;;13.74;99.98;100955.72;4943225;28;20088;-74
2023/06/27 01:04:17;;;;;;;14.30;3.20;;;14.80;99.90;;;13.74;100.00;100954.84;4926205;28;20047;-74
2023/06/27 01:07:01;;;;;;;27.98;3.70;;;14.70;99.90;;;13.71;100.00;100957.66;4939493;28;20035;-74
2023/06/27 01:10:03;;;;;;;20.48;3.65;;;14.70;99.90;;;13.65;100.00;100958.88;4930759;28;20050;-75
2023/06/27 01:12:46;;;;;;;20.13;3.83;;;14.60;99.90;;;13.56;100.00;100951.44;4950190;28;20622;-74
2023/06/27 01:15:14;;;;;;;23.58;3.60;;;14.60;99.90;;;13.49;100.00;100950.06;4934053;28;20044;-74
2023/06/27 01:17:41;;;;;;;20.50;3.10;;;14.60;99.90;;;13.44;100.00;100954.78;4940067;28;20782;-73
2023/06/27 01:20:09;;;;;;;20.88;3.97;;;14.40;99.90;;;13.37;100.00;100951.63;4933200;28;20043;-74
2023/06/27 01:22:46;;;;;;;19.40;3.58;;;14.40;99.90;;;13.32;100.00;100957.13;4941821;28;20131;-75
2023/06/27 01:25:12;;;;;;;14.05;3.10;;;14.30;99.90;;;13.24;100.00;100947.88;4953408;28;20094;-74
2023/06/27 01:27:38;;;;;;;15.25;3.25;;;14.30;99.90;;;13.22;100.00;100952.41;4941718;28;20660;-73
2023/06/27 01:30:06;;;;;;;22.30;3.40;;;14.20;99.90;;;13.19;100.00;100957.84;4934050;28;20045;-74
2023/06/27 01:32:36;;;;;;;18.55;3.63;;;14.20;99.90;;;13.18;100.00;100953.50;4925124;28;20038;-75
2023/06/27 01:35:21;;;;;;;20.08;3.33;;;14.20;99.90;;;13.22;100.00;100958.56;4942099;28;20444;-75
2023/06/27 01:37:55;;;;;;;23.27;4.05;;;14.30;99.90;;;13.27;100.00;100959.16;4943143;28;20598;-75
2023/06/27 01:40:23;;;;;;;22.48;3.83;;;14.30;99.90;;;13.33;100.00;100955.34;4941134;28;20035;-74
2023/06/27 01:42:59;;;;;;;17.55;3.53;;;14.30;99.90;;;13.35;100.00;100961.41;4957070;28;20047;-74
2023/06/27 01:45:26;;;;;;;22.08;3.25;;;14.30;99.90;;;13.37;100.00;100956.91;4936230;28;20035;-74
2023/06/27 01:47:54;;;;;;;14.90;3.13;;;14.40;99.90;;;13.40;100.00;100948.78;4943784;28;20031;-74
2023/06/27 01:50:20;;;;;;;23.17;4.43;;;14.40;99.90;;;13.39;100.00;100947.09;4901464;28;20480;-75
2023/06/27 01:52:46;;;;;;;18.75;3.05;;;14.40;99.90;;;13.40;100.00;100951.44;4940664;28;20091;-75
2023/06/27 01:55:12;;;;;;;22.67;4.05;;;14.40;99.90;;;13.38;100.00;100941.88;4939657;28;20090;-74
2023/06/27 01:57:38;;;;;;;20.70;3.70;;;14.40;99.90;;;13.38;100.00;100942.72;4929981;28;20050;-73
2023/06/27 02:00:05;;;;;;;;;;;14.40;99.90;;;13.30;100.00;100943.16;4943885;28;20042;-74
2023/06/27 02:02:31;;;;;;;18.77;3.85;;;14.30;99.90;;;13.22;100.00;100945.34;4940985;28;19997;-74
2023/06/27 02:04:56;;;;;;;19.42;3.92;;;14.30;99.90;;;13.20;100.00;100936.63;4925726;28;20035;-74
2023/06/27 02:07:22;;;;;;;18.88;4.22;;;14.30;99.90;;;13.21;100.00;100943.59;4947120;28;20035;-74
2023/06/27 02:09:48;;;;;;;;;;;14.30;99.90;;;13.17;100.00;100934.13;4934171;28;20042;-74
2023/06/27 02:12:15;;;;;;;21.95;3.88;;;14.20;99.90;;;13.16;100.00;100948.28;4945117;28;20195;-75
2023/06/27 02:14:42;;;;;;;24.23;4.47;;;14.20;99.90;;;13.19;100.00;100947.28;4906927;28;20034;-75
2023/06/27 02:17:08;;;;;;;27.60;4.47;;;14.20;99.90;;;13.23;100.00;100947.03;4933596;28;20114;-73
2023/06/27 02:19:34;;;;;;;21.42;4.07;;;14.30;99.90;;;13.30;100.00;100937.88;4944251;28;20570;-73
2023/06/27 02:22:00;;;;;;;28.45;4.22;;;14.30;99.90;;;13.38;100.00;100944.53;4934863;28;20036;-74
2023/06/27 02:24:26;;;;;;;24.65;4.05;;;14.40;99.90;;;13.43;100.00;100943.31;4944811;28;20058;-75
2023/06/27 02:26:51;;;;;;;;;;;14.40;99.90;;;13.46;100.00;100950.25;4936357;28;20463;-73
2023/06/27 02:29:17;;;;;;;25.77;3.83;;;14.50;99.90;;;13.48;100.00;100949.22;4932960;28;19925;-73
2023/06/27 02:31:43;;;;;;;20.65;3.92;;;14.50;99.90;;;13.49;100.00;100942.13;4936566;28;20117;-73
2023/06/27 02:34:09;;;;;;;27.15;4.25;;;14.50;99.90;;;13.53;100.00;100944.53;4944314;28;20038;-74
2023/06/27 02:36:34;;;;;;;;;;;14.50;99.90;;;13.51;100.00;100941.09;4937866;28;20396;-74
2023/06/27 02:39:02;;;;;;;25.65;3.78;;;14.50;99.90;;;13.47;100.00;100944.00;4945712;28;19926;-73
2023/06/27 02:41:27;;;;;;;20.02;4.10;;;14.50;99.90;;;13.46;100.00;100942.31;4940731;28;20032;-76
2023/06/27 02:43:53;;;;;;;29.48;4.20;;;14.40;99.90;;;13.42;100.00;100944.25;4943232;28;20071;-75
2023/06/27 02:46:19;;;;;;;;;;;14.50;99.90;;;13.35;100.00;100940.25;4945902;28;20038;-74
2023/06/27 02:48:45;;;;;;;23.85;4.55;;;14.40;99.90;;;13.31;100.00;100936.91;4944113;28;19921;-74
2023/06/27 02:51:11;;;;;;;;;;;14.40;99.90;;;13.26;100.00;100946.00;4944650;28;20070;-74
2023/06/27 02:53:37;;;;;;;27.50;4.32;;;14.30;99.90;;;13.23;100.00;100951.47;4940285;28;20307;-74
2023/06/27 02:56:07;;;;;;;21.50;4.40;;;14.30;99.90;;;13.26;100.00;100938.94;4943074;28;20059;-74
2023/06/27 02:58:33;;;;;;;22.15;3.80;;;14.30;99.90;;;13.27;100.00;100942.44;4943920;28;20042;-74
2023/06/27 03:01:01;;;;;;;28.77;4.75;;;14.30;99.90;;;13.30;100.00;100935.22;4934753;28;20036;-74
2023/06/27 03:03:30;;;;;;;29.90;4.90;;;14.30;99.90;;;13.36;100.00;100935.81;4931693;28;20612;-74
2023/06/27 03:05:56;;;;;;;23.33;4.18;;;14.30;99.90;;;13.40;100.00;100940.84;4924548;28;20067;-74
2023/06/27 03:08:21;;;;;;;28.80;4.97;;;14.40;99.90;;;13.43;100.00;100938.03;4939312;28;20054;-73
2023/06/27 03:10:47;;;;;;;24.17;4.47;;;14.40;99.90;;;13.45;100.00;100938.78;4942288;28;20736;-74
2023/06/27 03:13:13;;;;;;;19.70;4.03;;;14.50;99.90;;;13.50;100.00;100942.06;4928818;28;20050;-73
2023/06/27 03:15:39;;;;;;;;;;;14.40;99.90;;;13.50;100.00;100944.69;4935219;28;20046;-74
2023/06/27 03:18:05;;;;;;;26.65;4.72;;;14.50;99.90;;;13.55;100.00;100941.81;4934714;28;19918;-75
2023/06/27 03:20:30;;;;;;;21.40;4.85;;;14.50;99.90;;;13.61;100.00;100946.75;4932436;28;20038;-74
2023/06/27 03:22:56;;;;;;;23.95;4.38;;;14.60;99.90;;;13.67;100.00;100942.88;4951586;28;20062;-74
2023/06/27 03:25:22;;;;;;;21.10;4.60;;;14.60;99.90;;;13.75;100.00;100946.81;4941956;28;20616;-73
2023/06/27 03:27:48;;;;;;;;;;;14.60;99.90;;;13.81;100.00;100942.13;4943853;28;20118;-74
2023/06/27 03:30:14;;;;;;;19.48;4.18;;;14.70;99.90;;;13.86;100.00;100938.25;4958286;28;19937;-74
2023/06/27 03:32:39;;;;;;;22.88;4.30;;;14.80;99.90;;;13.96;100.00;100943.91;4942051;28;20090;-73
2023/06/27 03:35:06;;;;;;;21.77;4.20;;;14.90;99.90;;;14.04;100.00;100944.31;4946017;28;20031;-74
2023/06/27 03:37:33;;;;;;;20.17;4.28;;;15.00;99.90;;;14.15;100.00;100941.91;4936781;28;20166;-74
2023/06/27 03:40:00;;;;;;;27.98;4.40;;;15.10;99.90;;;14.43;100.00;100945.59;4925951;28;20615;-73
2023/06/27 03:42:25;;;;;;;25.70;4.88;;;15.80;99.90;;;15.33;100.00;100954.28;4913472;28;20099;-75
2023/06/27 03:44:51;;;;;;;20.77;4.28;;;17.20;99.90;;;16.74;96.88;100965.44;4926742;28;20567;-74
2023/06/27 03:47:17;;;;;;;;;;;17.30;99.90;;;18.22;89.77;100966.41;4935103;28;20031;-74
2023/06/27 03:49:43;;;;;;;20.92;3.95;;;19.70;99.90;;;19.51;80.62;100966.28;4940613;28;20434;-74
2023/06/27 03:52:10;;;;;;;22.73;3.88;;;20.70;99.90;;;20.47;74.46;100968.16;4918758;28;20436;-75
2023/06/27 03:54:36;;;;;;;18.83;3.97;;;21.50;99.90;;;21.01;71.06;100967.09;4941986;28;20027;-74
2023/06/27 03:57:01;;;;;;;18.70;3.78;;;21.80;99.90;;;21.47;69.31;100968.47;4942097;28;20042;-74
2023/06/27 03:59:27;;;;;;;23.75;3.67;;;22.50;99.90;;;22.17;66.88;100978.31;4936534;28;21198;-75
2023/06/27 04:01:53;;;;;;;22.98;4.10;;;22.90;99.90;;;22.26;64.60;100970.28;4910306;28;20046;-73
2023/06/27 04:04:21;;;;;;;19.23;3.25;;;22.20;99.90;;;21.15;66.50;100959.72;4906495;28;20058;-74
2023/06/27 04:06:47;;;;;;;16.35;3.28;;;21.40;99.90;;;19.98;68.52;100951.75;4943889;28;20404;-74
2023/06/27 04:09:13;;;;;;;30.80;3.70;;;20.50;99.90;;;19.24;70.89;100952.34;4929799;28;20035;-73
2023/06/27 04:11:38;;;;;;;;;;;20.60;99.90;;;18.95;71.40;100945.78;4949794;28;20058;-74
2023/06/27 04:14:04;;;;;;;16.52;3.63;;;19.50;99.90;;;18.25;73.56;100942.22;4942831;28;20395;-74
2023/06/27 04:16:30;;;;;;;;;;;19.40;99.90;;;17.59;74.72;100942.56;4941869;28;20129;-74
2023/06/27 04:18:56;;;;;;;22.77;3.65;;;18.40;99.90;;;17.14;77.30;100941.41;4934616;28;19922;-75
2023/06/27 04:21:22;;;;;;;22.05;3.78;;;18.00;99.90;;;16.74;79.50;100938.84;4942145;28;20047;-74
2023/06/27 04:23:51;;;;;;;20.77;3.85;;;17.90;99.90;;;17.43;79.92;100950.84;4926803;28;20039;-74
2023/06/27 04:26:17;;;;;;;20.02;3.92;;;18.10;99.90;;;17.37;78.43;100945.09;4928938;28;20047;-75
2023/06/27 04:28:44;;;;;;;17.05;3.88;;;17.90;99.90;;;17.04;78.95;100943.00;4944783;28;20095;-73
2023/06/27 04:31:10;;;;;;;31.95;4.72;;;17.70;99.90;;;16.68;79.58;100936.63;4945887;28;20039;-75
2023/06/27 04:33:39;;;;;;;22.55;4.00;;;17.40;99.90;;;16.29;81.03;100925.94;4926446;28;20106;-75
2023/06/27 04:36:09;;;;;;;19.73;3.60;;;17.20;99.90;;;16.04;82.68;100916.09;4941015;28;20480;-75
2023/06/27 04:38:40;;;;;;;19.88;3.92;;;16.90;99.90;;;15.84;84.19;100932.50;4918526;28;20162;-75
2023/06/27 04:41:07;;;;;;;20.73;3.80;;;16.70;99.90;;;15.66;84.80;100924.75;4931731;28;20039;-75
2023/06/27 04:43:34;;;;;;;17.20;3.75;;;16.60;99.90;;;15.58;86.20;100930.53;4940377;28;20046;-75
2023/06/27 04:46:00;;;;;;;20.35;4.05;;;16.50;99.90;;;15.65;86.48;100928.34;4947273;28;20251;-75
2023/06/27 04:48:27;;;;;;;18.00;3.90;;;17.10;99.90;;;17.47;82.10;100946.13;4942301;28;20035;-76
2023/06/27 04:50:56;;;;;;;18.55;3.38;;;18.30;99.90;;;19.09;75.05;100950.03;4940240;28;20039;-76
2023/06/27 04:53:25;;;;;;;17.63;3.67;;;18.60;99.90;;;18.72;73.72;100945.72;4955839;28;20039;-74
2023/06/27 04:55:53;;;;;;;25.80;3.53;;;19.80;99.90;;;22.00;66.88;100979.84;4940660;28;20090;-76
2023/06/27 04:58:19;;;;;;;15.00;2.80;;;20.70;99.90;;;21.18;65.55;100962.13;4932896;28;20035;-75
2023/06/27 05:00:51;;;;;;;17.10;3.58;;;20.90;99.90;;;21.21;65.50;100968.06;4918724;28;20174;-75
2023/06/27 05:03:18;;;;;;;12.35;2.67;;;21.70;99.90;;;22.94;61.18;100985.47;4939838;28;21498;-75
2023/06/27 05:05:44;;;;;;;18.40;3.35;;;22.70;99.90;;;24.26;57.77;100996.81;4933440;28;20163;-76
2023/06/27 05:08:12;;;;;;;17.83;3.10;;;23.50;99.90;;;25.22;56.46;101003.28;4956138;28;20121;-75
2023/06/27 05:10:37;;;;;;;17.67;3.60;;;24.00;99.90;;;24.62;55.48;100996.84;4940074;28;20027;-73
2023/06/27 05:13:03;;;;;;;15.32;3.30;;;23.80;99.90;;;23.27;58.20;100988.63;4924541;28;20039;-75
2023/06/27 05:15:29;;;;;;;;;;;23.70;99.90;;;21.82;60.77;100977.03;4927138;28;20037;-75
2023/06/27 05:18:15;;;;;;;20.02;3.67;;;22.10;99.90;;;20.39;64.54;100971.50;4933863;28;20279;-72
2023/06/27 05:20:47;;;;;;;26.63;4.18;;;21.10;99.90;;;19.49;67.91;100976.22;4933000;28;20043;-73
2023/06/27 05:23:13;;;;;;;21.27;4.15;;;20.30;99.90;;;18.69;70.97;100969.97;4917225;28;20063;-74
2023/06/27 05:25:39;;;;;;;18.02;3.90;;;19.70;99.90;;;18.21;73.67;100962.91;4927902;28;20564;-75
2023/06/27 05:28:04;;;;;;;20.75;3.97;;;19.30;99.90;;;18.19;74.90;100964.84;4946436;28;20049;-75
2023/06/27 05:30:31;;;;;;;17.08;4.07;;;19.30;99.90;;;19.01;73.64;100972.84;4941996;28;20063;-75
2023/06/27 05:33:03;;;;;;;18.23;3.53;;;19.40;99.90;;;18.92;73.62;100978.03;4934527;28;20040;-75
2023/06/27 05:35:29;;;;;;;21.27;3.92;;;19.40;99.90;;;18.91;73.61;100976.34;4935892;28;20129;-74
2023/06/27 05:37:55;;;;;;;18.05;3.92;;;19.40;99.90;;;19.17;73.30;100984.97;4944022;28;20394;-76
2023/06/27 05:40:21;;;;;;;18.40;4.00;;;19.50;99.90;;;19.05;73.19;100973.47;4946041;28;20043;-76
2023/06/27 05:42:47;;;;;;;;;;;19.50;99.90;;;18.89;73.18;100975.59;4941735;28;20604;-74
2023/06/27 05:45:12;;;;;;;13.82;3.50;;;19.80;99.90;;;21.55;68.37;101007.13;4945483;28;19941;-77
2023/06/27 05:47:38;;;;;;;15.57;3.65;;;21.30;99.90;;;24.91;59.33;101020.75;4928369;28;20043;-74
2023/06/27 05:50:05;;;;;;;;;;;21.50;99.90;;;27.80;52.51;101040.72;4943359;28;20500;-73
2023/06/27 05:52:32;;;;;;;16.13;3.38;;;25.30;99.90;;;29.13;48.02;101045.00;4924450;28;19969;-74
2023/06/27 05:54:59;;;;;;;16.13;2.90;;;27.00;99.90;;;30.52;45.70;101055.94;4941761;28;20477;-75
2023/06/27 05:57:24;;;;;;;13.18;2.78;;;28.30;99.90;;;31.54;43.51;101076.41;4917555;28;20050;-73
2023/06/27 05:59:50;;;;;;;20.17;3.50;;;29.30;98.30;;;32.01;42.06;101084.78;4945224;28;20031;-74
2023/06/27 06:02:17;;;;;;;16.13;2.85;;;30.10;96.20;;;32.85;40.71;101088.94;4945342;28;20046;-74
2023/06/27 06:04:43;;;;;;;18.48;3.50;;;30.40;95.80;;;31.06;42.17;101079.84;4934971;28;20054;-75
2023/06/27 06:07:09;;;;;;;14.50;3.10;;;29.30;95.00;;;27.72;47.16;101054.28;4937630;28;20047;-74
2023/06/27 06:09:35;;;;;;;14.55;2.90;;;27.70;96.00;;;25.38;51.61;101033.88;4945234;28;20126;-74
2023/06/27 06:12:01;;;;;;;15.23;2.65;;;26.10;97.70;;;23.52;55.15;101032.75;4931826;28;20029;-74
2023/06/27 06:14:27;;;;;;;18.83;3.00;;;24.60;99.90;;;22.16;58.70;101020.38;4937985;28;20031;-74
2023/06/27 06:16:54;;;;;;;18.45;3.47;;;23.30;99.90;;;20.96;61.33;101020.22;4929312;28;20097;-74
2023/06/27 06:19:19;;;;;;;20.45;2.90;;;22.20;99.90;;;20.16;64.04;101029.56;4942926;28;20039;-74
2023/06/27 06:21:45;;;;;;;17.65;3.45;;;21.40;99.90;;;19.56;66.35;101026.34;4955128;28;20099;-75
2023/06/27 06:24:11;;;;;;;18.70;3.70;;;21.30;99.90;;;19.36;68.14;101019.94;4935729;28;20043;-74
2023/06/27 06:26:37;;;;;;;14.57;3.20;;;20.40;99.90;;;19.18;69.60;101027.56;4911950;28;20126;-75
2023/06/27 06:29:04;;;;;;;14.40;2.95;;;20.10;99.90;;;18.98;70.27;101028.25;4933163;28;20135;-74
2023/06/27 06:31:30;;;;;;;19.70;3.45;;;20.00;99.90;;;18.92;71.20;101024.25;4932025;28;20144;-76
2023/06/27 06:33:57;;;;;;;16.17;3.35;;;19.70;99.90;;;18.72;71.91;101017.72;4919149;28;22196;-75
2023/06/27 06:36:24;;;;;;;15.20;2.95;;;19.60;99.90;;;18.54;72.71;101021.81;4925305;28;20105;-74
2023/06/27 06:38:50;;;;;;;21.90;3.72;;;19.40;99.90;;;18.34;73.30;101018.81;4929940;28;20032;-74
2023/06/27 06:41:18;;;;;;;14.10;3.13;;;19.20;99.90;;;18.19;73.71;101009.31;4947538;28;20047;-74
2023/06/27 06:43:44;;;;;;;14.73;2.75;;;19.10;99.90;;;18.00;74.46;101015.13;4936142;28;20035;-75
2023/06/27 06:46:10;;;;;;;15.10;2.95;;;18.80;99.90;;;17.72;74.94;101009.13;4922608;28;20039;-76
2023/06/27 06:48:36;;;;;;;16.00;2.95;;;18.70;99.90;;;17.68;75.93;101012.09;4922320;28;20031;-76
2023/06/27 06:51:02;;;;;;;11.35;2.58;;;18.60;99.90;;;17.53;76.19;101004.25;4945147;28;20047;-76
2023/06/27 06:53:28;;;;;;;16.30;2.60;;;18.50;99.90;;;17.55;76.64;101004.16;4926022;28;20046;-76
2023/06/27 06:55:54;;;;;;;19.10;2.97;;;18.50;99.90;;;17.90;75.65;101014.94;4934781;28;20066;-76
2023/06/27 06:58:20;;;;;;;19.55;3.05;;;18.90;99.90;;;18.74;73.27;101017.63;4927223;28;20055;-76
2023/06/27 07:00:45;;;;;;;22.33;2.97;;;19.20;99.90;;;18.72;72.30;101015.06;4943700;28;20536;-76
2023/06/27 07:03:11;;;;;;;;;;;19.20;99.90;;;18.46;72.01;101014.38;4936447;28;20504;-78
2023/06/27 07:05:40;;;;;;;13.63;2.15;;;19.20;99.90;;;18.26;72.59;101012.38;4944175;28;19915;-75
2023/06/27 07:08:06;;;;;;;16.55;2.92;;;19.00;99.90;;;18.04;72.91;101011.28;4942484;28;20497;-74
2023/06/27 07:10:33;;;;;;;18.08;2.85;;;18.90;99.90;;;17.87;73.67;101006.34;4924883;28;20070;-76
2023/06/27 07:13:01;;;;;;;14.10;2.97;;;18.80;99.90;;;17.74;73.92;101003.69;4935635;28;20087;-76
2023/06/27 07:15:29;;;;;;;12.10;2.13;;;18.70;99.90;;;17.63;74.61;100999.13;4944895;28;20039;-74
2023/06/27 07:17:55;;;;;;;15.15;2.65;;;18.60;99.90;;;17.76;74.09;101005.25;4926185;28;20031;-74
2023/06/27 07:20:22;;;;;;;14.52;2.05;;;18.70;99.90;;;18.12;74.03;101002.72;4931864;28;20045;-74
2023/06/27 07:22:49;;;;;;;11.98;2.75;;;19.50;99.90;;;20.33;68.86;101011.28;4931868;28;20043;-73
2023/06/27 07:25:15;;;;;;;15.88;2.70;;;20.80;99.90;;;22.38;64.00;101013.94;4942816;28;20043;-74
2023/06/27 07:27:43;;;;;;;14.30;2.10;;;22.30;99.90;;;23.05;60.11;101014.84;4938951;28;20058;-74
2023/06/27 07:30:10;;;;;;;16.35;2.33;;;22.80;99.90;;;22.45;59.34;101006.16;4951478;28;20039;-73
2023/06/27 07:32:36;;;;;;;11.93;1.95;;;22.60;99.90;;;21.76;59.52;100994.50;4939500;28;20067;-74
2023/06/27 07:35:04;;;;;;;10.52;2.10;;;22.20;99.90;;;21.01;60.92;100996.56;4932166;28;20035;-74
2023/06/27 07:37:30;;;;;;;16.77;2.50;;;21.70;99.90;;;20.49;62.05;100992.94;4927993;28;20038;-73
2023/06/27 07:39:57;;;;;;;17.63;2.30;;;21.50;99.90;;;20.95;61.72;100998.91;4943207;28;20078;-74
2023/06/27 07:42:27;;;;;;;11.52;2.08;;;21.70;99.90;;;21.80;59.58;101000.44;4939324;28;20523;-73
2023/06/27 07:44:53;;;;;;;12.18;2.00;;;22.20;99.90;;;22.07;59.25;101008.66;4930090;28;20039;-73
2023/06/27 07:47:19;;;;;;;11.73;2.03;;;22.30;99.90;;;21.68;59.23;101000.56;4942934;28;20031;-74
2023/06/27 07:49:45;;;;;;;9.85;1.42;;;22.00;99.90;;;21.06;59.48;100993.50;4944889;28;22525;-73
2023/06/27 07:52:11;;;;;;;15.45;1.80;;;21.60;99.90;;;20.74;60.41;100988.25;4933106;28;20035;-73
2023/06/27 07:54:37;;;;;;;14.55;2.10;;;21.80;99.90;;;21.56;60.29;101004.31;4943361;28;20042;-74
2023/06/27 07:57:04;;;;;;;10.43;1.90;;;21.90;99.90;;;21.19;60.28;100995.97;4918333;28;20039;-73
2023/06/27 07:59:30;;;;;;;14.75;2.30;;;21.70;99.90;;;20.82;61.58;100991.09;4932106;28;20042;-73
2023/06/27 08:01:56;;;;;;;12.25;2.17;;;21.40;99.90;;;20.45;62.20;100991.50;4943182;28;20118;-73
2023/06/27 08:04:22;;;;;;;14.20;2.05;;;21.10;99.90;;;20.02;63.48;100992.41;4944382;28;20070;-73
2023/06/27 08:06:48;;;;;;;12.85;2.00;;;20.90;99.90;;;20.60;63.22;101000.09;4941378;28;20031;-73
2023/06/27 08:09:15;;;;;;;11.50;2.20;;;21.60;99.90;;;22.51;59.76;101019.00;4942584;28;20704;-73
2023/06/27 08:11:40;;;;;;;21.35;2.00;;;22.80;99.90;;;23.38;57.57;101019.84;4931702;28;20797;-73
2023/06/27 08:14:06;;;;;;;19.77;2.58;;;23.30;99.90;;;23.18;57.33;101011.00;4935260;28;20055;-74
2023/06/27 08:16:35;;;;;;;10.27;1.67;;;23.20;99.90;;;22.49;57.13;101010.25;4943663;28;20053;-73
2023/06/27 08:19:01;;;;;;;11.95;2.10;;;22.80;99.90;;;21.95;58.13;100991.00;4951235;28;20066;-73
2023/06/27 08:21:27;;;;;;;12.00;2.60;;;22.50;99.90;;;21.53;60.42;100998.38;4940592;28;20038;-73
2023/06/27 08:23:52;;;;;;;9.15;2.65;;;22.10;99.90;;;21.10;61.87;100993.09;4941720;28;20055;-73
2023/06/27 08:26:19;;;;;;;15.40;2.58;;;21.80;99.90;;;20.81;62.37;100992.94;4925249;28;20066;-73
2023/06/27 08:28:45;;;;;;;18.05;3.63;;;21.60;99.90;;;20.73;62.80;100992.72;4943377;28;20424;-73
2023/06/27 08:31:14;;;;;;;27.17;2.63;;;21.60;99.90;;;21.25;62.30;100995.41;4925083;28;20039;-73
2023/06/27 08:33:40;;;;;;;9.57;2.08;;;21.80;99.90;;;21.80;61.41;101003.13;4947104;28;20130;-73
2023/06/27 08:36:07;;;;;;;13.90;2.10;;;22.20;99.90;;;22.46;60.49;101011.41;4933506;28;20042;-73
2023/06/27 08:38:32;;;;;;;13.38;1.85;;;22.70;99.90;;;22.94;60.13;100999.72;4935719;28;20039;-73
2023/06/27 08:41:01;;;;;;;8.52;1.80;;;23.20;99.90;;;23.20;58.58;101006.34;4957871;28;20027;-74
2023/06/27 08:43:27;;;;;;;14.13;2.08;;;23.60;99.90;;;23.51;57.12;101002.38;4942210;28;20070;-73
2023/06/27 08:45:56;;;;;;;17.65;2.03;;;23.80;99.90;;;23.56;55.34;101012.66;4939094;28;20090;-73
2023/06/27 08:48:22;;;;;;;12.00;1.83;;;23.70;99.90;;;22.95;55.45;101005.94;4942521;28;20051;-73
2023/06/27 08:50:53;;;;;;;11.35;1.90;;;23.30;99.90;;;22.14;56.97;100990.19;4934774;28;20186;-73
2023/06/27 08:53:24;;;;;;;10.95;1.88;;;22.90;99.90;;;21.65;58.65;100998.13;4923215;28;20043;-74
2023/06/27 08:56:04;;;;;;;7.82;1.58;;;22.40;99.90;;;21.31;58.74;100990.34;4916085;28;20138;-74
2023/06/27 08:58:59;;;;;;;9.23;1.40;;;22.10;99.90;;;21.08;59.75;100987.03;4925740;28;20093;-73
2023/06/27 09:01:27;;;;;;;8.50;1.83;;;22.00;99.90;;;21.31;59.66;100982.31;4943736;28;20031;-74
2023/06/27 09:03:53;;;;;;;11.60;2.08;;;22.20;99.90;;;21.92;59.85;100991.25;4934628;28;20035;-73
2023/06/27 09:06:20;;;;;;;8.13;1.48;;;22.40;99.90;;;22.15;58.03;100981.13;4942134;28;20066;-74
2023/06/27 09:08:48;;;;;;;10.23;1.70;;;22.80;99.90;;;22.49;56.70;100983.44;4933752;28;20098;-72
2023/06/27 09:11:16;;;;;;;17.15;1.85;;;23.10;99.90;;;22.78;55.88;101001.31;4942184;28;20055;-73
2023/06/27 09:13:45;;;;;;;36.40;2.40;;;23.00;99.90;;;22.10;56.34;101002.16;4942743;28;20055;-72
2023/06/27 09:16:12;;;;;;;19.50;2.13;;;22.40;99.90;;;20.75;62.28;100989.94;4917849;28;20039;-80
2023/06/27 09:18:39;;;;;;;24.77;2.83;;;21.60;99.90;;;19.84;65.97;100987.59;4905519;28;20093;-80
2023/06/27 09:21:10;;;;;;;8.65;1.40;;;21.10;99.90;;;19.54;67.29;100977.53;4924020;28;20060;-80
2023/06/27 09:23:37;;;;;;;8.70;1.27;;;20.60;99.90;;;19.05;68.71;100976.97;4894331;28;20044;-79
2023/06/27 09:26:13;;;;;;;12.98;2.05;;;20.20;99.90;;;18.79;69.92;100973.66;4919397;28;20035;-80
2023/06/27 09:28:53;;;;;;;7.80;1.48;;;20.10;99.90;;;19.30;72.79;100972.34;4924721;28;20038;-79
2023/06/27 09:31:21;;;;;;;11.48;1.92;;;20.10;99.90;;;19.51;73.39;100966.28;4890287;28;20035;-78
2023/06/27 09:33:48;;;;;;;16.75;1.88;;;20.20;99.90;;;19.58;71.98;100962.97;4916009;28;20082;-77
2023/06/27 09:36:37;;;;;;;10.68;1.58;;;20.30;99.90;;;19.64;72.40;100967.81;4895547;28;20106;-79
2023/06/27 09:39:10;;;;;;;10.35;2.03;;;20.30;99.90;;;19.65;74.30;100960.66;4947964;28;20035;-79
2023/06/27 09:41:44;;;;;;;7.70;1.58;;;20.40;99.90;;;19.71;71.92;100960.19;4919805;28;20177;-77
2023/06/27 09:44:24;;;;;;;9.90;1.75;;;20.40;99.90;;;19.41;70.26;100968.81;4930730;28;20053;-78
2023/06/27 09:46:52;;;;;;;6.03;1.40;;;20.20;99.90;;;19.06;70.38;100986.66;4897021;29;20035;-77
2023/06/27 09:49:22;;;;;;;4.55;1.10;;;20.10;99.90;;;19.16;70.05;100978.78;4944391;28;20039;-77
2023/06/27 09:51:50;;;;;;;16.13;1.40;;;20.20;99.90;;;19.54;68.75;100971.34;4913549;28;20113;-78
2023/06/27 09:54:21;;;;;;;7.85;1.38;;;20.40;99.90;;;20.00;66.42;100981.00;4935207;28;21554;-78
2023/06/27 09:56:54;;;;;;;9.57;1.30;;;20.80;99.90;;;20.49;66.11;100982.25;4932763;28;20035;-76
2023/06/27 09:59:26;;;;;;;7.05;1.38;;;21.20;99.90;;;20.91;66.21;100984.97;4939018;28;20081;-78
2023/06/27 10:01:58;;;;;;;6.93;1.20;;;21.30;99.90;;;20.71;63.90;100962.56;4929117;28;20043;-75
2023/06/27 10:04:24;;;;;;;6.45;1.48;;;21.50;99.90;;;20.94;64.49;100978.50;4935605;28;20039;-76
2023/06/27 10:06:50;;;;;;;8.15;1.20;;;21.70;99.90;;;21.15;62.22;100979.31;4943155;28;20042;-76
2023/06/27 10:09:19;;;;;;;6.07;1.15;;;21.70;99.90;;;21.02;61.13;100974.19;4927106;28;20496;-81